aviador You're here:

KJES Decoded Metar

in
Report Time2018-01-17 06:36:00
UTC Time2018-01-17 06:53:43
Flight Rules vfr VFR
WindCalm
Visibility9999 m
Phenomena:N/A
Clouds:N/A
Expected CloudBase > 400 ft AGL from Temp-Dew spread
CeilingNone
Temp03°C
Dew Point02°C (93% RH)
AAT1.3°C
QNH1025 hPa
Raw Report
METAR KJES 170636Z AUTO 00000KT 10SM CLR 03/02 A3028 RMK AO2=

Extra information for KJES:More info

Social comments